sensor_id;sensor_type;location;lat;lon;timestamp;P1;durP1;ratioP1;P2;durP2;ratioP2
25511;SDS011;13414;44.534;18.700;2023-11-18T00:58:47;3.33;;;1.73;;
25511;SDS011;13414;44.534;18.700;2023-11-18T01:01:55;2.70;;;1.45;;
25511;SDS011;13414;44.534;18.700;2023-11-18T01:12:42;3.38;;;1.83;;
25511;SDS011;13414;44.534;18.700;2023-11-18T01:16:53;2.75;;;1.33;;
25511;SDS011;13414;44.534;18.700;2023-11-18T01:26:58;2.38;;;1.35;;
25511;SDS011;13414;44.534;18.700;2023-11-18T02:07:02;3.92;;;1.10;;
25511;SDS011;13414;44.534;18.700;2023-11-18T02:20:38;2.95;;;1.20;;
25511;SDS011;13414;44.534;18.700;2023-11-18T02:30:38;2.58;;;1.27;;
25511;SDS011;13414;44.534;18.700;2023-11-18T02:37:28;2.60;;;1.50;;
25511;SDS011;13414;44.534;18.700;2023-11-18T02:41:33;2.50;;;1.30;;
25511;SDS011;13414;44.534;18.700;2023-11-18T02:44:53;2.60;;;1.20;;
25511;SDS011;13414;44.534;18.700;2023-11-18T02:48:12;3.78;;;1.38;;
25511;SDS011;13414;44.534;18.700;2023-11-18T02:55:11;4.60;;;1.08;;
25511;SDS011;13414;44.534;18.700;2023-11-18T03:01:36;2.13;;;1.02;;
25511;SDS011;13414;44.534;18.700;2023-11-18T03:08:25;3.00;;;1.33;;
25511;SDS011;13414;44.534;18.700;2023-11-18T03:15:25;4.03;;;1.65;;
25511;SDS011;13414;44.534;18.700;2023-11-18T03:19:06;4.30;;;1.77;;
25511;SDS011;13414;44.534;18.700;2023-11-18T03:26:29;3.70;;;2.20;;
25511;SDS011;13414;44.534;18.700;2023-11-18T03:30:04;3.25;;;2.00;;
25511;SDS011;13414;44.534;18.700;2023-11-18T03:37:00;5.35;;;2.58;;
25511;SDS011;13414;44.534;18.700;2023-11-18T03:39:53;11.88;;;8.70;;
25511;SDS011;13414;44.534;18.700;2023-11-18T03:45:45;5.53;;;2.60;;
25511;SDS011;13414;44.534;18.700;2023-11-18T03:48:55;4.47;;;2.42;;
25511;SDS011;13414;44.534;18.700;2023-11-18T03:51:50;4.00;;;2.42;;
25511;SDS011;13414;44.534;18.700;2023-11-18T03:54:57;6.47;;;2.78;;
25511;SDS011;13414;44.534;18.700;2023-11-18T04:09:18;4.57;;;2.78;;
25511;SDS011;13414;44.534;18.700;2023-11-18T04:12:50;6.60;;;3.65;;
25511;SDS011;13414;44.534;18.700;2023-11-18T04:16:24;6.63;;;4.00;;
25511;SDS011;13414;44.534;18.700;2023-11-18T04:20:09;4.20;;;2.40;;
25511;SDS011;13414;44.534;18.700;2023-11-18T04:23:23;4.93;;;2.50;;
25511;SDS011;13414;44.534;18.700;2023-11-18T04:26:54;5.57;;;2.50;;
25511;SDS011;13414;44.534;18.700;2023-11-18T04:29:42;4.45;;;2.60;;
25511;SDS011;13414;44.534;18.700;2023-11-18T04:32:27;3.83;;;2.42;;
25511;SDS011;13414;44.534;18.700;2023-11-18T04:35:18;5.53;;;3.38;;
25511;SDS011;13414;44.534;18.700;2023-11-18T04:44:24;5.45;;;3.00;;
25511;SDS011;13414;44.534;18.700;2023-11-18T04:47:13;5.57;;;2.47;;
25511;SDS011;13414;44.534;18.700;2023-11-18T04:49:55;4.65;;;2.33;;
25511;SDS011;13414;44.534;18.700;2023-11-18T04:52:59;5.82;;;2.92;;
25511;SDS011;13414;44.534;18.700;2023-11-18T05:01:52;5.75;;;3.63;;
25511;SDS011;13414;44.534;18.700;2023-11-18T05:04:24;6.65;;;4.18;;
25511;SDS011;13414;44.534;18.700;2023-11-18T05:06:59;6.10;;;3.90;;
25511;SDS011;13414;44.534;18.700;2023-11-18T05:09:50;7.63;;;3.90;;
25511;SDS011;13414;44.534;18.700;2023-11-18T05:15:24;11.32;;;4.82;;
25511;SDS011;13414;44.534;18.700;2023-11-18T05:18:07;8.63;;;5.15;;
25511;SDS011;13414;44.534;18.700;2023-11-18T05:20:47;8.73;;;5.25;;
25511;SDS011;13414;44.534;18.700;2023-11-18T05:23:35;9.35;;;4.97;;
25511;SDS011;13414;44.534;18.700;2023-11-18T05:26:33;9.55;;;4.50;;
25511;SDS011;13414;44.534;18.700;2023-11-18T05:39:07;5.88;;;3.80;;
25511;SDS011;13414;44.534;18.700;2023-11-18T05:41:47;5.78;;;3.33;;
25511;SDS011;13414;44.534;18.700;2023-11-18T05:44:47;8.32;;;3.88;;
25511;SDS011;13414;44.534;18.700;2023-11-18T05:47:27;7.30;;;2.92;;
25511;SDS011;13414;44.534;18.700;2023-11-18T05:50:00;6.47;;;3.88;;
25511;SDS011;13414;44.534;18.700;2023-11-18T05:52:43;10.50;;;3.97;;
25511;SDS011;13414;44.534;18.700;2023-11-18T05:55:44;6.22;;;3.75;;
25511;SDS011;13414;44.534;18.700;2023-11-18T05:58:36;11.85;;;4.53;;
25511;SDS011;13414;44.534;18.700;2023-11-18T06:01:27;8.02;;;5.05;;
25511;SDS011;13414;44.534;18.700;2023-11-18T06:04:27;9.88;;;5.28;;
25511;SDS011;13414;44.534;18.700;2023-11-18T06:07:29;15.25;;;7.15;;
25511;SDS011;13414;44.534;18.700;2023-11-18T06:09:56;15.18;;;6.75;;
25511;SDS011;13414;44.534;18.700;2023-11-18T06:12:29;19.00;;;7.15;;
25511;SDS011;13414;44.534;18.700;2023-11-18T06:15:08;13.32;;;7.68;;
25511;SDS011;13414;44.534;18.700;2023-11-18T06:17:55;12.48;;;7.72;;
25511;SDS011;13414;44.534;18.700;2023-11-18T06:20:23;14.52;;;8.07;;
25511;SDS011;13414;44.534;18.700;2023-11-18T06:22:51;15.73;;;8.02;;
25511;SDS011;13414;44.534;18.700;2023-11-18T06:25:18;14.25;;;8.10;;
25511;SDS011;13414;44.534;18.700;2023-11-18T06:27:47;12.02;;;7.35;;
25511;SDS011;13414;44.534;18.700;2023-11-18T06:30:20;14.65;;;9.00;;
25511;SDS011;13414;44.534;18.700;2023-11-18T06:32:48;14.15;;;8.75;;
25511;SDS011;13414;44.534;18.700;2023-11-18T06:35:15;14.98;;;7.22;;
25511;SDS011;13414;44.534;18.700;2023-11-18T06:42:43;15.30;;;10.00;;
25511;SDS011;13414;44.534;18.700;2023-11-18T06:45:43;20.52;;;9.85;;
25511;SDS011;13414;44.534;18.700;2023-11-18T06:49:02;21.20;;;9.90;;
25511;SDS011;13414;44.534;18.700;2023-11-18T06:52:06;19.38;;;10.18;;
25511;SDS011;13414;44.534;18.700;2023-11-18T06:54:46;16.30;;;9.40;;
25511;SDS011;13414;44.534;18.700;2023-11-18T06:57:25;16.15;;;8.65;;
25511;SDS011;13414;44.534;18.700;2023-11-18T07:00:39;16.42;;;7.88;;
25511;SDS011;13414;44.534;18.700;2023-11-18T07:03:11;14.80;;;7.32;;
25511;SDS011;13414;44.534;18.700;2023-11-18T07:05:42;20.25;;;8.00;;
25511;SDS011;13414;44.534;18.700;2023-11-18T07:08:11;14.77;;;7.65;;
25511;SDS011;13414;44.534;18.700;2023-11-18T07:11:14;18.25;;;9.73;;
25511;SDS011;13414;44.534;18.700;2023-11-18T07:13:50;28.40;;;10.70;;
25511;SDS011;13414;44.534;18.700;2023-11-18T07:16:41;18.05;;;10.07;;
25511;SDS011;13414;44.534;18.700;2023-11-18T07:19:12;15.45;;;8.15;;
25511;SDS011;13414;44.534;18.700;2023-11-18T07:21:45;15.45;;;8.13;;
25511;SDS011;13414;44.534;18.700;2023-11-18T07:24:26;15.20;;;7.78;;
25511;SDS011;13414;44.534;18.700;2023-11-18T07:34:42;14.55;;;6.57;;
25511;SDS011;13414;44.534;18.700;2023-11-18T07:48:53;8.52;;;4.80;;
25511;SDS011;13414;44.534;18.700;2023-11-18T07:53:52;11.55;;;6.65;;
25511;SDS011;13414;44.534;18.700;2023-11-18T07:57:29;9.23;;;4.93;;
25511;SDS011;13414;44.534;18.700;2023-11-18T09:38:14;10.27;;;3.38;;
25511;SDS011;13414;44.534;18.700;2023-11-18T09:46:46;5.32;;;2.35;;
25511;SDS011;13414;44.534;18.700;2023-11-18T09:49:44;5.88;;;3.38;;
25511;SDS011;13414;44.534;18.700;2023-11-18T09:52:18;9.55;;;3.67;;
25511;SDS011;13414;44.534;18.700;2023-11-18T09:54:56;5.93;;;3.25;;
25511;SDS011;13414;44.534;18.700;2023-11-18T09:57:49;7.20;;;3.50;;
25511;SDS011;13414;44.534;18.700;2023-11-18T10:00:44;6.97;;;4.15;;
25511;SDS011;13414;44.534;18.700;2023-11-18T10:03:24;4.18;;;2.33;;
25511;SDS011;13414;44.534;18.700;2023-11-18T10:06:12;10.25;;;5.88;;
25511;SDS011;13414;44.534;18.700;2023-11-18T10:09:12;5.97;;;3.08;;
25511;SDS011;13414;44.534;18.700;2023-11-18T10:12:06;5.38;;;2.78;;
25511;SDS011;13414;44.534;18.700;2023-11-18T10:14:42;4.35;;;2.17;;
25511;SDS011;13414;44.534;18.700;2023-11-18T10:17:13;4.63;;;2.28;;
25511;SDS011;13414;44.534;18.700;2023-11-18T10:20:44;6.28;;;3.40;;
25511;SDS011;13414;44.534;18.700;2023-11-18T10:23:27;14.18;;;5.28;;
25511;SDS011;13414;44.534;18.700;2023-11-18T10:26:03;9.55;;;4.88;;
25511;SDS011;13414;44.534;18.700;2023-11-18T10:29:24;6.63;;;4.22;;
25511;SDS011;13414;44.534;18.700;2023-11-18T10:32:20;9.70;;;2.67;;
25511;SDS011;13414;44.534;18.700;2023-11-18T10:35:09;5.97;;;2.38;;
25511;SDS011;13414;44.534;18.700;2023-11-18T10:37:40;6.70;;;3.60;;
25511;SDS011;13414;44.534;18.700;2023-11-18T10:40:09;6.47;;;3.00;;
25511;SDS011;13414;44.534;18.700;2023-11-18T10:42:41;5.25;;;2.90;;
25511;SDS011;13414;44.534;18.700;2023-11-18T10:48:49;5.90;;;2.55;;
25511;SDS011;13414;44.534;18.700;2023-11-18T10:54:59;5.60;;;2.83;;
25511;SDS011;13414;44.534;18.700;2023-11-18T10:58:04;6.22;;;3.42;;
25511;SDS011;13414;44.534;18.700;2023-11-18T11:06:40;3.35;;;1.70;;
25511;SDS011;13414;44.534;18.700;2023-11-18T11:09:21;6.30;;;2.35;;
25511;SDS011;13414;44.534;18.700;2023-11-18T11:13:00;3.03;;;1.33;;
25511;SDS011;13414;44.534;18.700;2023-11-18T11:15:42;2.70;;;1.70;;
25511;SDS011;13414;44.534;18.700;2023-11-18T11:18:19;4.57;;;2.38;;
25511;SDS011;13414;44.534;18.700;2023-11-18T11:21:50;3.15;;;1.50;;
25511;SDS011;13414;44.534;18.700;2023-11-18T11:25:09;3.67;;;1.80;;
25511;SDS011;13414;44.534;18.700;2023-11-18T11:28:06;3.95;;;2.70;;
25511;SDS011;13414;44.534;18.700;2023-11-18T11:30:40;4.22;;;2.40;;
25511;SDS011;13414;44.534;18.700;2023-11-18T11:33:28;4.00;;;2.17;;
25511;SDS011;13414;44.534;18.700;2023-11-18T11:36:20;5.57;;;2.40;;
25511;SDS011;13414;44.534;18.700;2023-11-18T11:39:45;7.53;;;3.70;;
25511;SDS011;13414;44.534;18.700;2023-11-18T11:42:24;7.00;;;3.57;;
25511;SDS011;13414;44.534;18.700;2023-11-18T11:45:38;4.18;;;2.35;;
25511;SDS011;13414;44.534;18.700;2023-11-18T11:48:52;5.20;;;2.90;;
25511;SDS011;13414;44.534;18.700;2023-11-18T11:51:23;6.93;;;3.75;;
25511;SDS011;13414;44.534;18.700;2023-11-18T11:53:59;5.78;;;2.42;;
25511;SDS011;13414;44.534;18.700;2023-11-18T11:56:46;5.57;;;2.40;;
25511;SDS011;13414;44.534;18.700;2023-11-18T11:59:15;4.28;;;2.20;;
25511;SDS011;13414;44.534;18.700;2023-11-18T12:01:44;4.32;;;2.20;;
25511;SDS011;13414;44.534;18.700;2023-11-18T12:04:26;4.22;;;2.30;;
25511;SDS011;13414;44.534;18.700;2023-11-18T12:06:56;4.25;;;2.03;;
25511;SDS011;13414;44.534;18.700;2023-11-18T12:09:29;5.85;;;2.60;;
25511;SDS011;13414;44.534;18.700;2023-11-18T12:12:01;4.30;;;2.80;;
25511;SDS011;13414;44.534;18.700;2023-11-18T12:14:30;6.82;;;3.13;;
25511;SDS011;13414;44.534;18.700;2023-11-18T12:17:15;5.35;;;3.00;;
25511;SDS011;13414;44.534;18.700;2023-11-18T12:19:49;6.40;;;2.70;;
25511;SDS011;13414;44.534;18.700;2023-11-18T12:22:25;6.22;;;2.80;;
25511;SDS011;13414;44.534;18.700;2023-11-18T12:27:58;6.97;;;3.20;;
25511;SDS011;13414;44.534;18.700;2023-11-18T12:42:14;4.85;;;2.30;;
25511;SDS011;13414;44.534;18.700;2023-11-18T12:48:42;4.05;;;2.40;;
25511;SDS011;13414;44.534;18.700;2023-11-18T12:51:12;4.15;;;2.35;;
25511;SDS011;13414;44.534;18.700;2023-11-18T12:53:47;4.90;;;2.70;;
25511;SDS011;13414;44.534;18.700;2023-11-18T12:56:21;4.78;;;3.03;;
25511;SDS011;13414;44.534;18.700;2023-11-18T12:58:49;5.35;;;3.33;;
25511;SDS011;13414;44.534;18.700;2023-11-18T13:01:19;5.80;;;2.55;;
25511;SDS011;13414;44.534;18.700;2023-11-18T13:03:47;6.95;;;3.47;;
25511;SDS011;13414;44.534;18.700;2023-11-18T13:06:16;6.38;;;3.05;;
25511;SDS011;13414;44.534;18.700;2023-11-18T13:12:02;6.35;;;3.05;;
25511;SDS011;13414;44.534;18.700;2023-11-18T13:14:44;8.00;;;4.20;;
25511;SDS011;13414;44.534;18.700;2023-11-18T13:17:57;7.97;;;4.40;;
25511;SDS011;13414;44.534;18.700;2023-11-18T13:20:41;11.38;;;5.05;;
25511;SDS011;13414;44.534;18.700;2023-11-18T13:26:22;11.40;;;6.55;;
25511;SDS011;13414;44.534;18.700;2023-11-18T13:29:03;10.57;;;6.15;;
25511;SDS011;13414;44.534;18.700;2023-11-18T13:31:52;17.25;;;10.52;;
25511;SDS011;13414;44.534;18.700;2023-11-18T13:37:51;18.60;;;12.30;;
25511;SDS011;13414;44.534;18.700;2023-11-18T14:01:36;7.00;;;4.13;;
25511;SDS011;13414;44.534;18.700;2023-11-18T14:05:16;7.07;;;3.60;;
25511;SDS011;13414;44.534;18.700;2023-11-18T14:07:58;12.95;;;8.10;;
25511;SDS011;13414;44.534;18.700;2023-11-18T14:10:59;8.20;;;3.63;;
25511;SDS011;13414;44.534;18.700;2023-11-18T14:13:44;13.63;;;6.50;;
25511;SDS011;13414;44.534;18.700;2023-11-18T14:16:24;7.85;;;4.30;;
25511;SDS011;13414;44.534;18.700;2023-11-18T14:19:38;7.00;;;3.88;;
25511;SDS011;13414;44.534;18.700;2023-11-18T14:22:05;7.18;;;3.53;;
25511;SDS011;13414;44.534;18.700;2023-11-18T14:24:50;7.15;;;3.33;;
25511;SDS011;13414;44.534;18.700;2023-11-18T14:27:34;6.60;;;2.92;;
25511;SDS011;13414;44.534;18.700;2023-11-18T14:32:56;5.10;;;2.90;;
25511;SDS011;13414;44.534;18.700;2023-11-18T14:35:27;5.80;;;3.58;;
25511;SDS011;13414;44.534;18.700;2023-11-18T14:43:06;6.28;;;3.58;;
25511;SDS011;13414;44.534;18.700;2023-11-18T14:43:56;5.40;;;2.60;;
25511;SDS011;13414;44.534;18.700;2023-11-18T14:50:51;4.85;;;2.80;;
25511;SDS011;13414;44.534;18.700;2023-11-18T14:53:46;7.40;;;3.30;;
25511;SDS011;13414;44.534;18.700;2023-11-18T14:56:17;6.22;;;3.72;;
25511;SDS011;13414;44.534;18.700;2023-11-18T14:59:18;6.97;;;4.20;;
25511;SDS011;13414;44.534;18.700;2023-11-18T15:01:49;4.75;;;3.33;;
25511;SDS011;13414;44.534;18.700;2023-11-18T15:04:24;7.50;;;4.00;;
25511;SDS011;13414;44.534;18.700;2023-11-18T15:06:55;7.82;;;4.47;;
25511;SDS011;13414;44.534;18.700;2023-11-18T15:27:06;9.27;;;5.13;;
25511;SDS011;13414;44.534;18.700;2023-11-18T15:29:36;8.18;;;5.00;;
25511;SDS011;13414;44.534;18.700;2023-11-18T15:32:25;9.95;;;4.97;;
25511;SDS011;13414;44.534;18.700;2023-11-18T15:35:11;7.45;;;4.43;;
25511;SDS011;13414;44.534;18.700;2023-11-18T15:40:59;6.15;;;4.13;;
25511;SDS011;13414;44.534;18.700;2023-11-18T15:43:27;6.82;;;3.80;;
25511;SDS011;13414;44.534;18.700;2023-11-18T15:46:10;7.20;;;3.85;;
25511;SDS011;13414;44.534;18.700;2023-11-18T15:48:45;10.70;;;5.35;;
25511;SDS011;13414;44.534;18.700;2023-11-18T15:51:55;6.70;;;3.67;;
25511;SDS011;13414;44.534;18.700;2023-11-18T15:54:49;7.88;;;4.03;;
25511;SDS011;13414;44.534;18.700;2023-11-18T15:57:20;9.57;;;5.13;;
25511;SDS011;13414;44.534;18.700;2023-11-18T15:59:48;6.82;;;3.72;;
25511;SDS011;13414;44.534;18.700;2023-11-18T16:02:18;8.95;;;6.15;;
25511;SDS011;13414;44.534;18.700;2023-11-18T16:04:52;9.80;;;5.55;;
25511;SDS011;13414;44.534;18.700;2023-11-18T16:07:35;8.95;;;5.60;;
25511;SDS011;13414;44.534;18.700;2023-11-18T16:10:16;7.70;;;4.63;;
25511;SDS011;13414;44.534;18.700;2023-11-18T16:12:55;5.72;;;2.92;;
25511;SDS011;13414;44.534;18.700;2023-11-18T16:15:31;4.80;;;2.15;;
25511;SDS011;13414;44.534;18.700;2023-11-18T16:17:59;4.43;;;2.10;;
25511;SDS011;13414;44.534;18.700;2023-11-18T16:20:28;3.50;;;2.50;;
25511;SDS011;13414;44.534;18.700;2023-11-18T16:23:00;4.55;;;2.78;;
25511;SDS011;13414;44.534;18.700;2023-11-18T16:25:32;4.35;;;2.70;;
25511;SDS011;13414;44.534;18.700;2023-11-18T16:28:00;6.28;;;3.15;;
25511;SDS011;13414;44.534;18.700;2023-11-18T16:30:30;3.95;;;2.63;;
25511;SDS011;13414;44.534;18.700;2023-11-18T16:32:59;11.43;;;7.10;;
25511;SDS011;13414;44.534;18.700;2023-11-18T16:35:29;10.88;;;6.75;;
25511;SDS011;13414;44.534;18.700;2023-11-18T16:37:59;18.75;;;10.25;;
25511;SDS011;13414;44.534;18.700;2023-11-18T16:40:32;11.82;;;7.10;;
25511;SDS011;13414;44.534;18.700;2023-11-18T16:43:00;13.30;;;7.45;;
25511;SDS011;13414;44.534;18.700;2023-11-18T16:45:30;11.07;;;7.07;;
25511;SDS011;13414;44.534;18.700;2023-11-18T16:48:02;13.23;;;7.32;;
25511;SDS011;13414;44.534;18.700;2023-11-18T16:50:38;11.27;;;6.15;;
25511;SDS011;13414;44.534;18.700;2023-11-18T16:53:08;9.88;;;6.10;;
25511;SDS011;13414;44.534;18.700;2023-11-18T16:55:38;9.32;;;4.72;;
25511;SDS011;13414;44.534;18.700;2023-11-18T16:58:09;11.55;;;6.45;;
25511;SDS011;13414;44.534;18.700;2023-11-18T17:00:38;11.23;;;6.53;;
25511;SDS011;13414;44.534;18.700;2023-11-18T17:03:08;11.00;;;5.32;;
25511;SDS011;13414;44.534;18.700;2023-11-18T17:05:38;9.00;;;5.32;;
25511;SDS011;13414;44.534;18.700;2023-11-18T17:08:06;8.32;;;4.30;;
25511;SDS011;13414;44.534;18.700;2023-11-18T17:10:37;9.48;;;4.80;;
25511;SDS011;13414;44.534;18.700;2023-11-18T17:13:05;19.17;;;12.57;;
25511;SDS011;13414;44.534;18.700;2023-11-18T17:15:39;7.22;;;3.22;;
25511;SDS011;13414;44.534;18.700;2023-11-18T17:18:10;7.07;;;4.43;;
25511;SDS011;13414;44.534;18.700;2023-11-18T17:20:40;4.22;;;2.65;;
25511;SDS011;13414;44.534;18.700;2023-11-18T17:23:12;4.97;;;3.00;;
25511;SDS011;13414;44.534;18.700;2023-11-18T17:25:46;7.18;;;3.70;;
25511;SDS011;13414;44.534;18.700;2023-11-18T17:31:24;13.80;;;7.80;;
25511;SDS011;13414;44.534;18.700;2023-11-18T17:35:08;7.82;;;4.97;;
25511;SDS011;13414;44.534;18.700;2023-11-18T17:40:47;10.00;;;4.63;;
25511;SDS011;13414;44.534;18.700;2023-11-18T17:46:39;10.60;;;5.38;;
25511;SDS011;13414;44.534;18.700;2023-11-18T17:49:23;7.00;;;4.25;;
25511;SDS011;13414;44.534;18.700;2023-11-18T17:51:56;8.73;;;4.63;;
25511;SDS011;13414;44.534;18.700;2023-11-18T17:54:26;9.32;;;4.70;;
25511;SDS011;13414;44.534;18.700;2023-11-18T17:56:54;7.95;;;4.82;;
25511;SDS011;13414;44.534;18.700;2023-11-18T17:59:24;7.35;;;4.43;;
25511;SDS011;13414;44.534;18.700;2023-11-18T18:02:00;10.02;;;4.90;;
25511;SDS011;13414;44.534;18.700;2023-11-18T18:05:06;8.75;;;4.43;;
25511;SDS011;13414;44.534;18.700;2023-11-18T18:25:24;6.95;;;4.47;;
25511;SDS011;13414;44.534;18.700;2023-11-18T18:28:14;8.00;;;4.75;;
25511;SDS011;13414;44.534;18.700;2023-11-18T18:30:43;8.18;;;4.82;;
25511;SDS011;13414;44.534;18.700;2023-11-18T18:33:12;8.32;;;4.82;;
25511;SDS011;13414;44.534;18.700;2023-11-18T18:35:41;8.27;;;4.70;;
25511;SDS011;13414;44.534;18.700;2023-11-18T18:38:13;7.60;;;4.63;;
25511;SDS011;13414;44.534;18.700;2023-11-18T18:40:41;8.32;;;4.68;;
25511;SDS011;13414;44.534;18.700;2023-11-18T18:43:10;8.85;;;4.80;;
25511;SDS011;13414;44.534;18.700;2023-11-18T18:45:38;9.65;;;5.32;;
25511;SDS011;13414;44.534;18.700;2023-11-18T18:48:06;26.77;;;13.98;;
25511;SDS011;13414;44.534;18.700;2023-11-18T18:50:34;38.95;;;21.30;;
25511;SDS011;13414;44.534;18.700;2023-11-18T18:53:05;34.00;;;19.35;;
25511;SDS011;13414;44.534;18.700;2023-11-18T18:55:35;32.72;;;17.50;;
25511;SDS011;13414;44.534;18.700;2023-11-18T18:58:02;30.92;;;18.30;;
25511;SDS011;13414;44.534;18.700;2023-11-18T19:00:31;16.58;;;8.73;;
25511;SDS011;13414;44.534;18.700;2023-11-18T19:02:59;13.63;;;8.00;;
25511;SDS011;13414;44.534;18.700;2023-11-18T19:05:27;11.57;;;6.45;;
25511;SDS011;13414;44.534;18.700;2023-11-18T19:07:58;10.35;;;6.40;;
25511;SDS011;13414;44.534;18.700;2023-11-18T19:10:27;12.05;;;6.30;;
25511;SDS011;13414;44.534;18.700;2023-11-18T19:12:56;12.73;;;7.35;;
25511;SDS011;13414;44.534;18.700;2023-11-18T19:15:26;13.70;;;7.85;;
25511;SDS011;13414;44.534;18.700;2023-11-18T19:17:54;14.30;;;8.68;;
25511;SDS011;13414;44.534;18.700;2023-11-18T19:20:23;13.70;;;8.75;;
25511;SDS011;13414;44.534;18.700;2023-11-18T19:22:51;15.95;;;10.57;;
25511;SDS011;13414;44.534;18.700;2023-11-18T19:25:21;20.42;;;12.85;;
25511;SDS011;13414;44.534;18.700;2023-11-18T19:27:49;17.70;;;11.82;;
25511;SDS011;13414;44.534;18.700;2023-11-18T19:30:21;19.98;;;11.73;;
25511;SDS011;13414;44.534;18.700;2023-11-18T19:32:54;30.10;;;17.80;;
25511;SDS011;13414;44.534;18.700;2023-11-18T19:35:22;48.15;;;28.08;;
25511;SDS011;13414;44.534;18.700;2023-11-18T19:38:50;39.40;;;23.33;;
25511;SDS011;13414;44.534;18.700;2023-11-18T19:41:21;43.65;;;25.58;;
25511;SDS011;13414;44.534;18.700;2023-11-18T19:43:51;47.33;;;27.38;;
25511;SDS011;13414;44.534;18.700;2023-11-18T19:46:22;45.92;;;25.55;;
25511;SDS011;13414;44.534;18.700;2023-11-18T19:48:53;50.35;;;28.77;;
25511;SDS011;13414;44.534;18.700;2023-11-18T19:51:24;55.20;;;31.83;;
25511;SDS011;13414;44.534;18.700;2023-11-18T19:53:56;64.15;;;35.60;;
25511;SDS011;13414;44.534;18.700;2023-11-18T19:56:25;51.60;;;30.15;;
25511;SDS011;13414;44.534;18.700;2023-11-18T19:58:54;44.88;;;25.92;;
25511;SDS011;13414;44.534;18.700;2023-11-18T20:01:26;49.47;;;28.25;;
25511;SDS011;13414;44.534;18.700;2023-11-18T20:03:54;45.35;;;27.40;;
25511;SDS011;13414;44.534;18.700;2023-11-18T20:06:22;57.47;;;32.22;;
25511;SDS011;13414;44.534;18.700;2023-11-18T20:08:56;66.97;;;34.97;;
25511;SDS011;13414;44.534;18.700;2023-11-18T20:14:27;67.60;;;36.97;;
25511;SDS011;13414;44.534;18.700;2023-11-18T20:17:21;65.88;;;36.35;;
25511;SDS011;13414;44.534;18.700;2023-11-18T20:19:55;132.02;;;75.63;;
25511;SDS011;13414;44.534;18.700;2023-11-18T20:25:06;77.07;;;41.38;;
25511;SDS011;13414;44.534;18.700;2023-11-18T20:27:50;101.13;;;56.08;;
25511;SDS011;13414;44.534;18.700;2023-11-18T20:30:33;110.43;;;60.78;;
25511;SDS011;13414;44.534;18.700;2023-11-18T20:33:08;108.85;;;58.13;;
25511;SDS011;13414;44.534;18.700;2023-11-18T20:35:41;95.90;;;53.35;;
25511;SDS011;13414;44.534;18.700;2023-11-18T20:38:12;94.20;;;51.67;;
25511;SDS011;13414;44.534;18.700;2023-11-18T20:40:39;72.35;;;44.15;;
25511;SDS011;13414;44.534;18.700;2023-11-18T20:43:09;59.40;;;35.40;;
25511;SDS011;13414;44.534;18.700;2023-11-18T20:45:37;64.97;;;38.05;;
25511;SDS011;13414;44.534;18.700;2023-11-18T20:48:05;60.03;;;36.60;;
25511;SDS011;13414;44.534;18.700;2023-11-18T20:50:37;64.68;;;39.38;;
25511;SDS011;13414;44.534;18.700;2023-11-18T20:53:05;78.60;;;46.15;;
25511;SDS011;13414;44.534;18.700;2023-11-18T20:55:32;76.90;;;43.45;;
25511;SDS011;13414;44.534;18.700;2023-11-18T20:58:00;78.63;;;45.03;;
25511;SDS011;13414;44.534;18.700;2023-11-18T21:00:28;76.40;;;44.33;;
25511;SDS011;13414;44.534;18.700;2023-11-18T21:02:56;74.28;;;42.30;;
25511;SDS011;13414;44.534;18.700;2023-11-18T21:05:24;82.75;;;48.60;;
25511;SDS011;13414;44.534;18.700;2023-11-18T21:07:53;60.72;;;37.13;;
25511;SDS011;13414;44.534;18.700;2023-11-18T21:10:23;68.10;;;39.88;;
25511;SDS011;13414;44.534;18.700;2023-11-18T21:12:57;62.33;;;37.67;;
25511;SDS011;13414;44.534;18.700;2023-11-18T21:15:30;68.70;;;40.20;;
25511;SDS011;13414;44.534;18.700;2023-11-18T21:17:57;80.60;;;49.67;;
25511;SDS011;13414;44.534;18.700;2023-11-18T21:20:27;105.93;;;62.50;;
25511;SDS011;13414;44.534;18.700;2023-11-18T21:23:04;143.80;;;87.07;;
25511;SDS011;13414;44.534;18.700;2023-11-18T21:25:33;140.93;;;83.13;;
25511;SDS011;13414;44.534;18.700;2023-11-18T21:28:06;141.10;;;80.05;;
25511;SDS011;13414;44.534;18.700;2023-11-18T21:30:35;137.00;;;82.97;;
25511;SDS011;13414;44.534;18.700;2023-11-18T21:33:04;141.27;;;82.30;;
25511;SDS011;13414;44.534;18.700;2023-11-18T21:35:32;146.68;;;83.90;;
25511;SDS011;13414;44.534;18.700;2023-11-18T21:38:06;160.07;;;91.25;;
25511;SDS011;13414;44.534;18.700;2023-11-18T21:40:41;154.70;;;93.18;;
25511;SDS011;13414;44.534;18.700;2023-11-18T21:43:14;159.32;;;93.93;;
25511;SDS011;13414;44.534;18.700;2023-11-18T21:45:50;157.85;;;91.82;;
25511;SDS011;13414;44.534;18.700;2023-11-18T21:48:27;148.45;;;89.50;;
25511;SDS011;13414;44.534;18.700;2023-11-18T21:50:58;130.18;;;74.30;;
25511;SDS011;13414;44.534;18.700;2023-11-18T21:53:33;152.43;;;87.93;;
25511;SDS011;13414;44.534;18.700;2023-11-18T21:56:05;143.65;;;83.95;;
25511;SDS011;13414;44.534;18.700;2023-11-18T21:58:33;145.07;;;89.25;;
25511;SDS011;13414;44.534;18.700;2023-11-18T22:01:02;144.27;;;88.18;;
25511;SDS011;13414;44.534;18.700;2023-11-18T22:03:31;146.02;;;84.13;;
25511;SDS011;13414;44.534;18.700;2023-11-18T22:06:11;139.18;;;83.68;;
25511;SDS011;13414;44.534;18.700;2023-11-18T22:08:45;119.82;;;70.53;;
25511;SDS011;13414;44.534;18.700;2023-11-18T22:11:13;104.03;;;63.38;;
25511;SDS011;13414;44.534;18.700;2023-11-18T22:13:44;97.57;;;60.72;;
25511;SDS011;13414;44.534;18.700;2023-11-18T22:16:14;99.60;;;59.90;;
25511;SDS011;13414;44.534;18.700;2023-11-18T22:18:45;103.82;;;61.67;;
25511;SDS011;13414;44.534;18.700;2023-11-18T22:21:16;98.60;;;60.80;;
25511;SDS011;13414;44.534;18.700;2023-11-18T22:23:50;98.55;;;59.08;;
25511;SDS011;13414;44.534;18.700;2023-11-18T22:26:21;82.85;;;49.45;;
25511;SDS011;13414;44.534;18.700;2023-11-18T22:28:51;79.30;;;47.78;;
25511;SDS011;13414;44.534;18.700;2023-11-18T22:31:19;117.75;;;65.45;;
25511;SDS011;13414;44.534;18.700;2023-11-18T22:34:02;80.10;;;46.25;;
25511;SDS011;13414;44.534;18.700;2023-11-18T22:36:42;77.45;;;44.47;;
25511;SDS011;13414;44.534;18.700;2023-11-18T22:39:18;89.38;;;50.30;;
25511;SDS011;13414;44.534;18.700;2023-11-18T22:41:51;113.75;;;61.65;;
25511;SDS011;13414;44.534;18.700;2023-11-18T22:44:24;113.93;;;64.55;;
25511;SDS011;13414;44.534;18.700;2023-11-18T22:47:06;109.78;;;63.63;;
25511;SDS011;13414;44.534;18.700;2023-11-18T22:49:40;90.65;;;52.55;;
25511;SDS011;13414;44.534;18.700;2023-11-18T22:52:14;81.85;;;47.55;;
25511;SDS011;13414;44.534;18.700;2023-11-18T22:54:43;52.50;;;30.25;;
25511;SDS011;13414;44.534;18.700;2023-11-18T22:57:11;92.30;;;54.35;;
25511;SDS011;13414;44.534;18.700;2023-11-18T22:59:42;135.02;;;81.03;;
25511;SDS011;13414;44.534;18.700;2023-11-18T23:02:22;123.72;;;73.95;;
25511;SDS011;13414;44.534;18.700;2023-11-18T23:04:58;137.05;;;79.88;;
25511;SDS011;13414;44.534;18.700;2023-11-18T23:07:31;124.50;;;71.35;;
